sensor_id;sensor_type;location;lat;lon;timestamp;temperature;humidity
4079;DHT22;2054;47.858;11.156;2023-10-09T11:54:50;24.80;91.00
4079;DHT22;2054;47.858;11.156;2023-10-09T11:57:17;24.60;91.30
4079;DHT22;2054;47.858;11.156;2023-10-09T11:59:44;24.70;89.50
4079;DHT22;2054;47.858;11.156;2023-10-09T12:02:19;24.70;90.40
4079;DHT22;2054;47.858;11.156;2023-10-09T12:04:47;24.80;90.00
4079;DHT22;2054;47.858;11.156;2023-10-09T12:07:14;24.70;88.10
4079;DHT22;2054;47.858;11.156;2023-10-09T12:09:42;24.50;85.80
4079;DHT22;2054;47.858;11.156;2023-10-09T12:12:08;24.40;87.60
4079;DHT22;2054;47.858;11.156;2023-10-09T12:14:35;24.50;89.00
4079;DHT22;2054;47.858;11.156;2023-10-09T12:17:04;24.50;87.30
4079;DHT22;2054;47.858;11.156;2023-10-09T12:19:34;24.40;87.80
4079;DHT22;2054;47.858;11.156;2023-10-09T12:22:01;24.30;89.10
4079;DHT22;2054;47.858;11.156;2023-10-09T12:24:29;24.40;88.30
4079;DHT22;2054;47.858;11.156;2023-10-09T12:26:57;24.40;88.00
4079;DHT22;2054;47.858;11.156;2023-10-09T12:29:24;24.40;88.50
4079;DHT22;2054;47.858;11.156;2023-10-09T12:31:55;24.30;85.60
4079;DHT22;2054;47.858;11.156;2023-10-09T12:34:25;24.20;88.40
4079;DHT22;2054;47.858;11.156;2023-10-09T12:36:55;24.10;88.70
4079;DHT22;2054;47.858;11.156;2023-10-09T12:39:26;24.10;88.40
4079;DHT22;2054;47.858;11.156;2023-10-09T12:41:58;24.10;89.40
4079;DHT22;2054;47.858;11.156;2023-10-09T12:44:32;24.00;89.50
4079;DHT22;2054;47.858;11.156;2023-10-09T12:46:59;24.10;88.80
4079;DHT22;2054;47.858;11.156;2023-10-09T12:49:30;24.20;89.70
4079;DHT22;2054;47.858;11.156;2023-10-09T12:51:58;24.20;90.30
4079;DHT22;2054;47.858;11.156;2023-10-09T12:54:25;24.30;89.00
4079;DHT22;2054;47.858;11.156;2023-10-09T12:56:54;24.30;89.70
4079;DHT22;2054;47.858;11.156;2023-10-09T12:59:21;24.20;86.60
4079;DHT22;2054;47.858;11.156;2023-10-09T13:01:50;24.20;89.80
4079;DHT22;2054;47.858;11.156;2023-10-09T13:04:23;24.30;88.40
4079;DHT22;2054;47.858;11.156;2023-10-09T13:06:58;24.40;90.10
4079;DHT22;2054;47.858;11.156;2023-10-09T13:09:29;24.50;88.90
4079;DHT22;2054;47.858;11.156;2023-10-09T13:12:01;24.50;87.10
4079;DHT22;2054;47.858;11.156;2023-10-09T13:14:30;24.20;86.30
4079;DHT22;2054;47.858;11.156;2023-10-09T13:16:59;24.00;87.30
4079;DHT22;2054;47.858;11.156;2023-10-09T13:19:33;23.80;88.70
4079;DHT22;2054;47.858;11.156;2023-10-09T13:22:02;23.70;86.20
4079;DHT22;2054;47.858;11.156;2023-10-09T13:24:38;23.70;88.40
4079;DHT22;2054;47.858;11.156;2023-10-09T13:27:05;23.70;89.10
4079;DHT22;2054;47.858;11.156;2023-10-09T13:29:35;23.50;87.60
4079;DHT22;2054;47.858;11.156;2023-10-09T13:32:05;23.30;88.30
4079;DHT22;2054;47.858;11.156;2023-10-09T13:34:39;23.10;87.90
4079;DHT22;2054;47.858;11.156;2023-10-09T13:37:11;22.90;87.40
4079;DHT22;2054;47.858;11.156;2023-10-09T13:39:39;22.90;88.80
4079;DHT22;2054;47.858;11.156;2023-10-09T13:42:18;22.90;90.10
4079;DHT22;2054;47.858;11.156;2023-10-09T13:44:44;23.00;89.60
4079;DHT22;2054;47.858;11.156;2023-10-09T13:47:14;23.00;89.50
4079;DHT22;2054;47.858;11.156;2023-10-09T13:49:46;22.80;89.70
4079;DHT22;2054;47.858;11.156;2023-10-09T13:52:17;22.80;89.50
4079;DHT22;2054;47.858;11.156;2023-10-09T13:54:45;22.80;89.60
4079;DHT22;2054;47.858;11.156;2023-10-09T13:57:14;22.80;89.60
4079;DHT22;2054;47.858;11.156;2023-10-09T13:59:41;22.80;90.10
4079;DHT22;2054;47.858;11.156;2023-10-09T14:02:09;22.80;91.20
4079;DHT22;2054;47.858;11.156;2023-10-09T14:04:43;22.90;90.90
4079;DHT22;2054;47.858;11.156;2023-10-09T14:07:10;22.80;90.70
4079;DHT22;2054;47.858;11.156;2023-10-09T14:09:38;22.80;90.70
4079;DHT22;2054;47.858;11.156;2023-10-09T14:12:10;22.60;90.80
4079;DHT22;2054;47.858;11.156;2023-10-09T14:14:41;22.50;90.90
4079;DHT22;2054;47.858;11.156;2023-10-09T14:17:13;22.50;91.80
4079;DHT22;2054;47.858;11.156;2023-10-09T14:19:44;22.60;92.30
4079;DHT22;2054;47.858;11.156;2023-10-09T14:22:13;22.60;93.20
4079;DHT22;2054;47.858;11.156;2023-10-09T14:24:42;22.70;91.80
4079;DHT22;2054;47.858;11.156;2023-10-09T14:27:10;22.80;92.10
4079;DHT22;2054;47.858;11.156;2023-10-09T14:29:43;22.80;92.30
4079;DHT22;2054;47.858;11.156;2023-10-09T14:32:11;22.70;91.30
4079;DHT22;2054;47.858;11.156;2023-10-09T14:34:38;22.70;91.30
4079;DHT22;2054;47.858;11.156;2023-10-09T14:37:08;22.80;91.60
4079;DHT22;2054;47.858;11.156;2023-10-09T14:39:37;22.80;91.30
4079;DHT22;2054;47.858;11.156;2023-10-09T14:42:06;22.90;91.10
4079;DHT22;2054;47.858;11.156;2023-10-09T14:44:35;22.90;91.00
4079;DHT22;2054;47.858;11.156;2023-10-09T14:47:03;23.00;90.50
4079;DHT22;2054;47.858;11.156;2023-10-09T14:49:31;23.00;90.80
4079;DHT22;2054;47.858;11.156;2023-10-09T14:52:00;23.10;90.40
4079;DHT22;2054;47.858;11.156;2023-10-09T14:54:27;23.10;90.20
4079;DHT22;2054;47.858;11.156;2023-10-09T14:56:54;23.10;90.30
4079;DHT22;2054;47.858;11.156;2023-10-09T14:59:23;23.10;90.20
4079;DHT22;2054;47.858;11.156;2023-10-09T15:01:51;23.10;90.70
4079;DHT22;2054;47.858;11.156;2023-10-09T15:04:19;23.10;90.70
4079;DHT22;2054;47.858;11.156;2023-10-09T15:06:46;23.10;90.90
4079;DHT22;2054;47.858;11.156;2023-10-09T15:09:15;23.20;90.80
4079;DHT22;2054;47.858;11.156;2023-10-09T15:11:47;23.10;90.80
4079;DHT22;2054;47.858;11.156;2023-10-09T15:14:15;23.10;91.20
4079;DHT22;2054;47.858;11.156;2023-10-09T15:16:45;23.10;91.40
4079;DHT22;2054;47.858;11.156;2023-10-09T15:19:13;23.10;91.40
4079;DHT22;2054;47.858;11.156;2023-10-09T15:21:42;23.10;92.30
4079;DHT22;2054;47.858;11.156;2023-10-09T15:24:11;23.10;92.40
4079;DHT22;2054;47.858;11.156;2023-10-09T15:26:41;23.10;92.00
4079;DHT22;2054;47.858;11.156;2023-10-09T15:29:08;23.10;92.80
4079;DHT22;2054;47.858;11.156;2023-10-09T15:31:35;23.10;93.00
4079;DHT22;2054;47.858;11.156;2023-10-09T15:34:04;22.90;91.70
4079;DHT22;2054;47.858;11.156;2023-10-09T15:36:35;22.80;91.10
4079;DHT22;2054;47.858;11.156;2023-10-09T15:39:02;22.70;91.50
4079;DHT22;2054;47.858;11.156;2023-10-09T15:41:33;22.70;92.20
4079;DHT22;2054;47.858;11.156;2023-10-09T15:44:00;22.60;91.70
4079;DHT22;2054;47.858;11.156;2023-10-09T15:46:27;22.60;92.40
4079;DHT22;2054;47.858;11.156;2023-10-09T15:48:59;22.50;91.40
4079;DHT22;2054;47.858;11.156;2023-10-09T15:51:27;22.20;92.40
4079;DHT22;2054;47.858;11.156;2023-10-09T15:53:56;22.20;93.00
4079;DHT22;2054;47.858;11.156;2023-10-09T15:56:23;22.20;93.80
4079;DHT22;2054;47.858;11.156;2023-10-09T15:58:52;22.10;94.60
4079;DHT22;2054;47.858;11.156;2023-10-09T16:01:20;22.00;94.70
4079;DHT22;2054;47.858;11.156;2023-10-09T16:03:49;21.90;94.90
4079;DHT22;2054;47.858;11.156;2023-10-09T16:06:17;21.80;95.70
4079;DHT22;2054;47.858;11.156;2023-10-09T16:08:47;21.80;96.50
4079;DHT22;2054;47.858;11.156;2023-10-09T16:11:19;21.80;96.60
4079;DHT22;2054;47.858;11.156;2023-10-09T16:13:48;21.70;96.40
4079;DHT22;2054;47.858;11.156;2023-10-09T16:16:24;21.60;96.10
4079;DHT22;2054;47.858;11.156;2023-10-09T16:18:51;21.60;96.90
4079;DHT22;2054;47.858;11.156;2023-10-09T16:21:17;21.50;97.00
4079;DHT22;2054;47.858;11.156;2023-10-09T16:23:46;21.40;97.50
4079;DHT22;2054;47.858;11.156;2023-10-09T16:26:14;21.40;98.70
4079;DHT22;2054;47.858;11.156;2023-10-09T16:28:42;21.30;98.60
4079;DHT22;2054;47.858;11.156;2023-10-09T16:31:10;21.20;99.00
4079;DHT22;2054;47.858;11.156;2023-10-09T16:33:40;21.10;99.70
4079;DHT22;2054;47.858;11.156;2023-10-09T16:36:07;21.10;99.90
4079;DHT22;2054;47.858;11.156;2023-10-09T16:38:34;21.00;99.90
4079;DHT22;2054;47.858;11.156;2023-10-09T16:41:06;20.90;99.90
4079;DHT22;2054;47.858;11.156;2023-10-09T16:43:34;20.70;99.90
4079;DHT22;2054;47.858;11.156;2023-10-09T16:46:03;20.60;99.90
4079;DHT22;2054;47.858;11.156;2023-10-09T16:48:34;20.40;99.90
4079;DHT22;2054;47.858;11.156;2023-10-09T16:51:03;20.30;99.90
4079;DHT22;2054;47.858;11.156;2023-10-09T16:53:34;20.10;99.90
4079;DHT22;2054;47.858;11.156;2023-10-09T16:56:02;20.00;99.90
4079;DHT22;2054;47.858;11.156;2023-10-09T16:58:36;19.90;99.90
4079;DHT22;2054;47.858;11.156;2023-10-09T17:01:03;19.90;99.90
4079;DHT22;2054;47.858;11.156;2023-10-09T17:03:36;19.80;99.90
4079;DHT22;2054;47.858;11.156;2023-10-09T17:06:07;19.80;99.90
4079;DHT22;2054;47.858;11.156;2023-10-09T17:08:36;19.80;99.90
4079;DHT22;2054;47.858;11.156;2023-10-09T17:11:07;19.70;99.90
4079;DHT22;2054;47.858;11.156;2023-10-09T17:13:41;19.60;99.90
4079;DHT22;2054;47.858;11.156;2023-10-09T17:16:13;19.50;99.90
4079;DHT22;2054;47.858;11.156;2023-10-09T17:18:43;19.40;99.90
4079;DHT22;2054;47.858;11.156;2023-10-09T17:21:11;19.40;99.90
4079;DHT22;2054;47.858;11.156;2023-10-09T17:23:38;19.30;99.90
4079;DHT22;2054;47.858;11.156;2023-10-09T17:26:07;19.20;99.90
4079;DHT22;2054;47.858;11.156;2023-10-09T17:28:36;19.20;99.90
4079;DHT22;2054;47.858;11.156;2023-10-09T17:31:04;19.20;99.90
4079;DHT22;2054;47.858;11.156;2023-10-09T17:33:32;19.10;99.90
4079;DHT22;2054;47.858;11.156;2023-10-09T17:36:01;19.10;99.90
4079;DHT22;2054;47.858;11.156;2023-10-09T17:38:28;19.10;99.90
4079;DHT22;2054;47.858;11.156;2023-10-09T17:40:56;19.00;99.90
4079;DHT22;2054;47.858;11.156;2023-10-09T17:43:24;19.00;99.90
4079;DHT22;2054;47.858;11.156;2023-10-09T17:45:52;18.90;99.90
4079;DHT22;2054;47.858;11.156;2023-10-09T17:48:21;18.90;99.90
4079;DHT22;2054;47.858;11.156;2023-10-09T17:50:48;18.80;99.90
4079;DHT22;2054;47.858;11.156;2023-10-09T17:53:15;18.80;99.90
4079;DHT22;2054;47.858;11.156;2023-10-09T17:55:43;18.70;99.90
4079;DHT22;2054;47.858;11.156;2023-10-09T17:58:12;18.60;99.90
4079;DHT22;2054;47.858;11.156;2023-10-09T18:00:41;18.60;99.90
4079;DHT22;2054;47.858;11.156;2023-10-09T18:03:08;18.60;99.90
4079;DHT22;2054;47.858;11.156;2023-10-09T18:05:36;18.50;99.90
4079;DHT22;2054;47.858;11.156;2023-10-09T18:08:04;18.50;99.90
4079;DHT22;2054;47.858;11.156;2023-10-09T18:10:33;18.60;99.90
4079;DHT22;2054;47.858;11.156;2023-10-09T18:13:01;18.50;99.90
4079;DHT22;2054;47.858;11.156;2023-10-09T18:15:29;18.50;99.90
4079;DHT22;2054;47.858;11.156;2023-10-09T18:17:59;18.50;99.90
4079;DHT22;2054;47.858;11.156;2023-10-09T18:20:26;18.60;99.90
4079;DHT22;2054;47.858;11.156;2023-10-09T18:22:56;18.50;99.90
4079;DHT22;2054;47.858;11.156;2023-10-09T18:25:24;18.60;99.90
4079;DHT22;2054;47.858;11.156;2023-10-09T18:27:51;18.60;99.90
4079;DHT22;2054;47.858;11.156;2023-10-09T18:30:18;18.50;99.90
4079;DHT22;2054;47.858;11.156;2023-10-09T18:32:47;18.40;99.90
4079;DHT22;2054;47.858;11.156;2023-10-09T18:35:14;18.50;99.90
4079;DHT22;2054;47.858;11.156;2023-10-09T18:37:42;18.50;99.90
4079;DHT22;2054;47.858;11.156;2023-10-09T18:40:11;18.50;99.90
4079;DHT22;2054;47.858;11.156;2023-10-09T18:42:38;18.50;99.90
4079;DHT22;2054;47.858;11.156;2023-10-09T18:45:07;18.40;99.90
4079;DHT22;2054;47.858;11.156;2023-10-09T18:47:35;18.40;99.90
4079;DHT22;2054;47.858;11.156;2023-10-09T18:50:06;18.40;99.90
4079;DHT22;2054;47.858;11.156;2023-10-09T18:52:33;18.40;99.90
4079;DHT22;2054;47.858;11.156;2023-10-09T18:55:00;18.30;99.90
4079;DHT22;2054;47.858;11.156;2023-10-09T18:57:28;18.30;99.90
4079;DHT22;2054;47.858;11.156;2023-10-09T18:59:56;18.30;99.90
4079;DHT22;2054;47.858;11.156;2023-10-09T19:02:23;18.20;99.90
4079;DHT22;2054;47.858;11.156;2023-10-09T19:04:51;18.10;99.90
4079;DHT22;2054;47.858;11.156;2023-10-09T19:07:18;18.00;99.90
4079;DHT22;2054;47.858;11.156;2023-10-09T19:09:45;18.00;99.90
4079;DHT22;2054;47.858;11.156;2023-10-09T19:12:12;17.80;99.90
4079;DHT22;2054;47.858;11.156;2023-10-09T19:14:40;17.70;99.90
4079;DHT22;2054;47.858;11.156;2023-10-09T19:17:07;17.60;99.90
4079;DHT22;2054;47.858;11.156;2023-10-09T19:19:34;17.40;99.90
4079;DHT22;2054;47.858;11.156;2023-10-09T19:22:01;17.30;99.90
4079;DHT22;2054;47.858;11.156;2023-10-09T19:24:30;17.20;99.90
4079;DHT22;2054;47.858;11.156;2023-10-09T19:26:57;17.10;99.90
4079;DHT22;2054;47.858;11.156;2023-10-09T19:29:24;17.00;99.90
4079;DHT22;2054;47.858;11.156;2023-10-09T19:31:52;17.00;99.90
4079;DHT22;2054;47.858;11.156;2023-10-09T19:34:19;16.90;99.90
4079;DHT22;2054;47.858;11.156;2023-10-09T19:36:46;16.90;99.90
4079;DHT22;2054;47.858;11.156;2023-10-09T19:39:13;16.90;99.90
4079;DHT22;2054;47.858;11.156;2023-10-09T19:41:42;16.90;99.90
4079;DHT22;2054;47.858;11.156;2023-10-09T19:44:09;16.90;99.90
4079;DHT22;2054;47.858;11.156;2023-10-09T19:46:37;16.90;99.90
4079;DHT22;2054;47.858;11.156;2023-10-09T19:49:05;16.90;99.90
4079;DHT22;2054;47.858;11.156;2023-10-09T19:51:32;16.90;99.90
4079;DHT22;2054;47.858;11.156;2023-10-09T19:53:59;16.80;99.90
4079;DHT22;2054;47.858;11.156;2023-10-09T19:56:26;16.80;99.90
4079;DHT22;2054;47.858;11.156;2023-10-09T19:58:53;16.80;99.90
4079;DHT22;2054;47.858;11.156;2023-10-09T20:01:20;16.80;99.90
4079;DHT22;2054;47.858;11.156;2023-10-09T20:03:48;16.80;99.90
4079;DHT22;2054;47.858;11.156;2023-10-09T20:06:18;16.80;99.90
4079;DHT22;2054;47.858;11.156;2023-10-09T20:08:45;16.80;99.90
4079;DHT22;2054;47.858;11.156;2023-10-09T20:11:14;16.80;99.90
4079;DHT22;2054;47.858;11.156;2023-10-09T20:13:41;16.80;99.90
4079;DHT22;2054;47.858;11.156;2023-10-09T20:16:09;16.80;99.90
4079;DHT22;2054;47.858;11.156;2023-10-09T20:18:37;16.80;99.90
4079;DHT22;2054;47.858;11.156;2023-10-09T20:21:07;16.80;99.90
4079;DHT22;2054;47.858;11.156;2023-10-09T20:23:37;16.80;99.90
4079;DHT22;2054;47.858;11.156;2023-10-09T20:26:05;16.80;99.90
4079;DHT22;2054;47.858;11.156;2023-10-09T20:28:33;16.80;99.90
4079;DHT22;2054;47.858;11.156;2023-10-09T20:31:01;16.80;99.90
4079;DHT22;2054;47.858;11.156;2023-10-09T20:33:29;16.80;99.90
4079;DHT22;2054;47.858;11.156;2023-10-09T20:36:09;16.70;99.90
4079;DHT22;2054;47.858;11.156;2023-10-09T20:38:57;16.70;99.90
4079;DHT22;2054;47.858;11.156;2023-10-09T20:41:24;16.70;99.90
4079;DHT22;2054;47.858;11.156;2023-10-09T20:43:53;16.70;99.90
4079;DHT22;2054;47.858;11.156;2023-10-09T20:46:20;16.70;99.90
4079;DHT22;2054;47.858;11.156;2023-10-09T20:48:49;16.70;99.90
4079;DHT22;2054;47.858;11.156;2023-10-09T20:51:17;16.70;99.90
4079;DHT22;2054;47.858;11.156;2023-10-09T20:53:44;16.70;99.90
4079;DHT22;2054;47.858;11.156;2023-10-09T20:56:12;16.70;99.90
4079;DHT22;2054;47.858;11.156;2023-10-09T20:58:39;16.70;99.90
